Schofield, Hawaii
Current Conditions -  °F | °C
As of 7:55 AM on Tuesday 21 Oct 2014 (Local Time) from PHHI Reporting Station
Scattered Clouds Scattered Clouds  
Wind Chill: 77°   Ceiling: Unl
Heat Index: 79°   Visibility: 7mi
Dew Point: 66°   Wind: 2mph
Humidity: 69%   Direction: NA
Pressure: 30.08"   Gusts: NA
Location:  21.4794°N, 158.1°W
Report Text: PHHI 211755Z VRB02KT 7SM FEW025 SCT120 25/19 A3008 RMK SLPNO AO2A WND DATA ESTMD ALSTG ESTMD 52017
Loading
Personal Weather Stations






























Interactive Weather Map
Tropical Storm Tracking
New forecast layout! Learn more

10-Day Weather Forecast

Advertisements
Track Severe Weather on mobile